M I D A S
Marine Information and Data Acquisition System
Tripno 694 of the Zeeleeuw from 2004-04-14 06:14:40 to 2004-04-14 15:42:14
Back to CruiseResearch ActivitiesStationsMapUnderway DataData graphs

EquipmentUnitsComment
TimeDGPSUTC
LatitudeDGPSDM.mWGS84
LongitudeDGPSDM.mWGS84
HeadingGyrodeg 
SOGDGPSknotsSpeed over ground
COGDGPSdegCourse over ground
DepthEcho soundermeters200 kHz
Missing or incorrect values are displayed as -999
Navigation data collected by the RV Zeeleeuw from 2004-04-14 06:14:40 to 2004-04-14 15:42:14
                                                                                    Next 1000 lines
Time Latitude Longitude Heading SOG COG Depth
2004-04-14 06:14:48 51°13.653 2°55.978 118.1 0.1 181 8.4
2004-04-14 06:14:53 51°13.653 2°55.978 116.5 0.1 181 8.4
2004-04-14 06:14:59 51°13.653 2°55.978 115.4 0.1 221 8.4
2004-04-14 06:15:04 51°13.653 2°55.977 114.6 0.5 292 8.6
2004-04-14 06:15:08 51°13.653 2°55.975 114.2 0.9 282 8.7
2004-04-14 06:15:13 51°13.654 2°55.972 113.8 1.3 290 8.8
2004-04-14 06:15:19 51°13.655 2°55.966 113.6 1.9 288 8.9
2004-04-14 06:15:24 51°13.657 2°55.961 113.8 2.4 291 4.6
2004-04-14 06:15:29 51°13.658 2°55.956 114.1 2.6 291 -999
2004-04-14 06:15:34 51°13.659 2°55.95 114.1 2.9 292 -999
2004-04-14 06:15:39 51°13.661 2°55.943 113.3 3 292 -999
2004-04-14 06:15:44 51°13.662 2°55.936 112.3 3.3 289 -999
2004-04-14 06:15:49 51°13.664 2°55.929 111.2 3.5 288 -999
2004-04-14 06:15:54 51°13.665 2°55.921 110.1 3.7 287 -999
2004-04-14 06:15:59 51°13.667 2°55.912 108.8 3.9 285 -999
2004-04-14 06:16:04 51°13.668 2°55.904 107.5 4.1 284 -999
2004-04-14 06:16:09 51°13.669 2°55.895 106.5 4.2 283 -999
2004-04-14 06:16:14 51°13.671 2°55.885 105.3 4.3 282 -999
2004-04-14 06:16:19 51°13.672 2°55.876 104.4 4.4 281 -999
2004-04-14 06:16:24 51°13.673 2°55.866 103.4 4.5 280 -999
2004-04-14 06:16:29 51°13.674 2°55.856 102.3 4.6 280 -999
2004-04-14 06:16:34 51°13.675 2°55.845 101.3 4.6 278 -999
2004-04-14 06:16:39 51°13.675 2°55.835 99.9 4.7 277 -999
2004-04-14 06:16:44 51°13.676 2°55.824 97.7 4.8 275 -999
2004-04-14 06:16:49 51°13.676 2°55.814 95.4 4.9 273 -999
2004-04-14 06:16:53 51°13.676 2°55.805 93.4 4.9 271 -999
2004-04-14 06:16:59 51°13.675 2°55.793 90.5 4.7 267 -999
2004-04-14 06:17:04 51°13.675 2°55.783 88.7 4.4 266 -999
2004-04-14 06:17:09 51°13.674 2°55.774 87.6 4 265 -999
2004-04-14 06:17:14 51°13.674 2°55.767 86.2 3.6 263 -999
2004-04-14 06:17:19 51°13.673 2°55.761 84.5 3.1 263 12.4
2004-04-14 06:17:23 51°13.673 2°55.758 82.9 2.2 262 12.3
2004-04-14 06:17:29 51°13.673 2°55.754 80.9 1.9 262 12.1
2004-04-14 06:17:33 51°13.673 2°55.753 78.3 0.8 268 12.3
2004-04-14 06:17:39 51°13.673 2°55.752 74.5 0.6 277 12.3
2004-04-14 06:17:43 51°13.674 2°55.752 70.7 0.5 21 12.5
2004-04-14 06:17:49 51°13.675 2°55.754 64 0.8 34 12.4
2004-04-14 06:17:53 51°13.676 2°55.755 59.1 1.3 37 12.7
2004-04-14 06:17:57 51°13.678 2°55.757 50.9 1.7 33 13.5
2004-04-14 06:18:04 51°13.682 2°55.76 43.9 2.1 29 13.9
2004-04-14 06:18:09 51°13.685 2°55.762 37.1 2.1 29 14.3
2004-04-14 06:18:13 51°13.688 2°55.763 30.3 2.6 19 14.9
2004-04-14 06:18:19 51°13.693 2°55.765 23.7 2.9 12 15.1
2004-04-14 06:18:23 51°13.696 2°55.765 16.8 3.2 4 15.6
2004-04-14 06:18:28 51°13.701 2°55.765 10.1 3.3 359 16.2
2004-04-14 06:18:33 51°13.706 2°55.763 3.1 3.5 351 15.3
2004-04-14 06:18:39 51°13.711 2°55.761 356 3.7 345 15.1
2004-04-14 06:18:43 51°13.715 2°55.758 350.2 3.8 337 14.7
2004-04-14 06:18:49 51°13.721 2°55.753 341.4 4 333 14.1
2004-04-14 06:18:53 51°13.725 2°55.749 335.8 4.1 328 13.2
2004-04-14 06:18:59 51°13.731 2°55.743 331.1 4.1 327 11.9
2004-04-14 06:19:03 51°13.735 2°55.738 329.5 4.6 327 11.1
2004-04-14 06:19:09 51°13.742 2°55.731 329.4 4.8 327 10.8
2004-04-14 06:19:13 51°13.747 2°55.726 329.4 5.1 326 10.8
2004-04-14 06:19:19 51°13.754 2°55.718 329.2 5.4 326 10.8
2004-04-14 06:19:23 51°13.76 2°55.712 328.8 5.8 325 10.7
2004-04-14 06:19:28 51°13.766 2°55.704 328.1 6 325 10.6
2004-04-14 06:19:33 51°13.773 2°55.696 327.3 6.2 324 10.9
2004-04-14 06:19:39 51°13.782 2°55.686 326.5 6.3 323 10.7
2004-04-14 06:19:44 51°13.789 2°55.677 326.2 6.6 323 10.7
2004-04-14 06:19:49 51°13.797 2°55.668 326.3 6.7 323 11
2004-04-14 06:19:53 51°13.803 2°55.661 327.9 6.9 325 11.3
2004-04-14 06:19:59 51°13.813 2°55.651 330.2 7 326 11.4
2004-04-14 06:20:03 51°13.82 2°55.644 332.2 7.2 328 11.3
2004-04-14 06:20:09 51°13.83 2°55.634 333.1 7.2 329 11.6
2004-04-14 06:20:13 51°13.837 2°55.628 334 7.3 330 11.5
2004-04-14 06:20:19 51°13.848 2°55.618 335.2 7.4 331 11.4
2004-04-14 06:20:23 51°13.855 2°55.612 336.4 7.5 333 11.3
2004-04-14 06:20:29 51°13.866 2°55.603 337.5 7.5 333 11.6
2004-04-14 06:20:33 51°13.874 2°55.598 338.2 7.5 333 11.6
2004-04-14 06:20:39 51°13.885 2°55.589 339 7.7 334 11.1
2004-04-14 06:20:43 51°13.893 2°55.583 339.5 7.7 334 11.1
2004-04-14 06:20:48 51°13.902 2°55.575 339.5 7.8 334 11.2
2004-04-14 06:20:53 51°13.912 2°55.568 339.7 7.8 335 11.1
2004-04-14 06:20:59 51°13.924 2°55.56 340.4 7.8 335 11.1
2004-04-14 06:21:04 51°13.934 2°55.553 340.9 7.9 336 11
2004-04-14 06:21:09 51°13.944 2°55.545 341.6 7.9 336 11.3
2004-04-14 06:21:13 51°13.952 2°55.54 341.7 7.9 337 11.4
2004-04-14 06:21:19 51°13.964 2°55.531 341.6 7.9 336 11.8
2004-04-14 06:21:23 51°13.972 2°55.526 341.5 7.9 336 11.7
2004-04-14 06:21:28 51°13.982 2°55.519 341.6 7.9 336 11.7
2004-04-14 06:21:33 51°13.992 2°55.511 341.4 8 336 11.7
2004-04-14 06:21:39 51°14.004 2°55.503 341.3 8 336 11.6
2004-04-14 06:21:43 51°14.013 2°55.497 341.8 8.1 337 11.6
2004-04-14 06:21:48 51°14.023 2°55.49 342 8.1 337 11.7
2004-04-14 06:21:53 51°14.033 2°55.483 341.8 8.1 336 11.8
2004-04-14 06:21:59 51°14.046 2°55.474 341.4 8.2 336 12.3
2004-04-14 06:22:03 51°14.055 2°55.468 341.8 8.4 337 12.4
2004-04-14 06:22:09 51°14.067 2°55.459 342.1 8.5 336 12.4
2004-04-14 06:22:13 51°14.076 2°55.453 342.2 8.6 337 12.5
2004-04-14 06:22:19 51°14.089 2°55.443 341.7 8.6 336 12.4
2004-04-14 06:22:23 51°14.098 2°55.437 341.1 8.8 336 12.6
2004-04-14 06:22:28 51°14.11 2°55.429 341.1 9 336 12.6
2004-04-14 06:22:33 51°14.121 2°55.42 341.1 9.1 335 12.6
2004-04-14 06:22:39 51°14.135 2°55.409 340.4 9.3 335 12.6
2004-04-14 06:22:43 51°14.145 2°55.402 339.6 9.5 333 12.5
2004-04-14 06:22:48 51°14.157 2°55.392 338.7 9.6 333 12.6
2004-04-14 06:22:53 51°14.169 2°55.381 338 9.7 332 12.4
2004-04-14 06:22:59 51°14.183 2°55.367 336.2 9.8 330 12.5
2004-04-14 06:23:03 51°14.192 2°55.358 333.6 9.9 327 12.5
2004-04-14 06:23:08 51°14.203 2°55.345 331.6 10.1 325 12.4
2004-04-14 06:23:13 51°14.214 2°55.331 330.2 10.1 324 12.4
2004-04-14 06:23:19 51°14.228 2°55.314 328 10.3 322 12.4
2004-04-14 06:23:23 51°14.236 2°55.302 326.2 10.3 319 12.4
2004-04-14 06:23:28 51°14.247 2°55.287 324.6 10.4 319 12.4
2004-04-14 06:23:33 51°14.258 2°55.271 323.7 10.5 318 12.4
2004-04-14 06:23:39 51°14.271 2°55.251 322.9 10.6 317 12.4
2004-04-14 06:23:44 51°14.281 2°55.235 321.8 10.7 315 12.4
2004-04-14 06:23:49 51°14.291 2°55.217 320.2 10.8 313 12.4
2004-04-14 06:23:53 51°14.299 2°55.202 318.5 10.8 311 12.4
2004-04-14 06:23:59 51°14.31 2°55.179 315.4 10.9 308 12.4
2004-04-14 06:24:04 51°14.319 2°55.159 312.9 11 306 12.4
2004-04-14 06:24:08 51°14.326 2°55.143 311.1 11 305 12.6
2004-04-14 06:24:13 51°14.335 2°55.122 309.9 11.2 305 12.3
2004-04-14 06:24:18 51°14.344 2°55.101 309.1 11.5 304 12.1
2004-04-14 06:24:23 51°14.354 2°55.08 309.1 11.7 306 12.2
2004-04-14 06:24:29 51°14.366 2°55.056 310.6 11.8 309 12.3
2004-04-14 06:24:33 51°14.376 2°55.041 313.4 12 312 12.5
2004-04-14 06:24:39 51°14.392 2°55.02 318.3 12.2 317 12.3
2004-04-14 06:24:43 51°14.403 2°55.007 322.4 12.7 324 12.3
2004-04-14 06:24:48 51°14.418 2°54.991 325.4 13 326 12.2
2004-04-14 06:24:53 51°14.433 2°54.975 327.4 13.1 326 11.8
2004-04-14 06:24:58 51°14.45 2°54.96 329.4 13.3 329 12
2004-04-14 06:25:04 51°14.469 2°54.944 332.2 13.5 331 11.6
2004-04-14 06:25:09 51°14.486 2°54.929 333.3 13.5 331 11.5
2004-04-14 06:25:13 51°14.499 2°54.917 333.3 13.5 331 11.8
2004-04-14 06:25:19 51°14.518 2°54.898 332.4 13.6 330 11.3
2004-04-14 06:25:23 51°14.531 2°54.885 330.7 13.6 328 11.2
2004-04-14 06:25:29 51°14.549 2°54.865 329.7 13.6 326 11.2
2004-04-14 06:25:33 51°14.562 2°54.852 328.8 13.6 326 11.2
2004-04-14 06:25:39 51°14.581 2°54.831 328.3 13.6 325 11.2
2004-04-14 06:25:43 51°14.593 2°54.818 327.8 13.7 325 11.2
2004-04-14 06:25:48 51°14.609 2°54.8 327.3 13.7 325 11.2
2004-04-14 06:25:53 51°14.625 2°54.783 327.2 13.7 326 11.1
2004-04-14 06:25:58 51°14.64 2°54.766 327.3 13.7 326 11.1
2004-04-14 06:26:03 51°14.656 2°54.749 327.9 13.8 326 11
2004-04-14 06:26:08 51°14.672 2°54.732 328.2 13.8 326 10.9
2004-04-14 06:26:13 51°14.688 2°54.715 328.1 13.8 326 10.9
2004-04-14 06:26:19 51°14.707 2°54.695 328 13.8 326 11
2004-04-14 06:26:23 51°14.72 2°54.681 328.1 13.8 326 11.2
2004-04-14 06:26:29 51°14.739 2°54.661 328.2 13.8 326 11
2004-04-14 06:26:33 51°14.751 2°54.648 328.5 13.8 327 11
2004-04-14 06:26:39 51°14.771 2°54.627 328.7 13.8 327 11
2004-04-14 06:26:43 51°14.784 2°54.614 328.6 13.8 326 11
2004-04-14 06:26:49 51°14.803 2°54.594 328.2 13.8 326 11
2004-04-14 06:26:53 51°14.815 2°54.58 328.1 13.8 326 11
2004-04-14 06:26:59 51°14.834 2°54.56 328.2 13.8 326 10.8
2004-04-14 06:27:03 51°14.847 2°54.546 328.6 13.8 327 10.9
2004-04-14 06:27:09 51°14.866 2°54.526 328.7 13.8 326 10.8
2004-04-14 06:27:13 51°14.879 2°54.513 328.4 13.7 326 10.8
2004-04-14 06:27:19 51°14.898 2°54.492 328.1 13.7 326 10.7
2004-04-14 06:27:23 51°14.91 2°54.479 328 13.7 326 10.7
2004-04-14 06:27:29 51°14.929 2°54.458 328 13.8 326 10.6
2004-04-14 06:27:33 51°14.942 2°54.444 328 13.8 326 10.4
2004-04-14 06:27:39 51°14.961 2°54.424 328 13.7 326 10.2
2004-04-14 06:27:43 51°14.973 2°54.41 328 13.7 325 10.1
2004-04-14 06:27:49 51°14.991 2°54.389 327.8 13.7 325 10.1
2004-04-14 06:27:53 51°15.004 2°54.376 327.8 13.6 325 10
2004-04-14 06:27:58 51°15.019 2°54.359 328 13.6 326 10
2004-04-14 06:28:04 51°15.039 2°54.339 328.2 13.6 326 10
2004-04-14 06:28:08 51°15.051 2°54.325 328.7 13.6 326 10
2004-04-14 06:28:13 51°15.067 2°54.308 328.8 13.7 326 10
2004-04-14 06:28:18 51°15.082 2°54.291 329 13.7 326 10.1
2004-04-14 06:28:23 51°15.098 2°54.275 329 13.7 326 10.1
2004-04-14 06:28:28 51°15.114 2°54.258 329 13.7 326 10.2
2004-04-14 06:28:33 51°15.13 2°54.241 329 13.7 326 10.2
2004-04-14 06:28:39 51°15.149 2°54.221 329.2 13.8 326 10.4
2004-04-14 06:28:43 51°15.162 2°54.208 329.6 13.8 328 10.4
2004-04-14 06:28:49 51°15.182 2°54.188 330.2 13.9 328 10.3
2004-04-14 06:28:53 51°15.195 2°54.176 331.2 13.9 329 10.5
2004-04-14 06:28:59 51°15.214 2°54.156 331.7 13.9 328 10.5
2004-04-14 06:29:03 51°15.228 2°54.144 332 13.8 329 10.6
2004-04-14 06:29:09 51°15.247 2°54.125 332.4 13.8 329 10.6
2004-04-14 06:29:13 51°15.261 2°54.113 332.6 13.8 329 10.7
2004-04-14 06:29:19 51°15.28 2°54.094 332.7 13.8 329 10.7
2004-04-14 06:29:23 51°15.294 2°54.081 332.5 13.9 329 10.8
2004-04-14 06:29:28 51°15.31 2°54.065 332.4 13.9 329 10.9
2004-04-14 06:29:33 51°15.326 2°54.049 332 13.9 328 11.1
2004-04-14 06:29:39 51°15.346 2°54.03 331.9 13.9 329 11.1
2004-04-14 06:29:44 51°15.363 2°54.014 331.9 13.9 329 11.3
2004-04-14 06:29:48 51°15.376 2°54.001 332 13.9 329 11.1
2004-04-14 06:29:53 51°15.393 2°53.986 332.3 13.8 329 11.2
2004-04-14 06:29:59 51°15.412 2°53.967 332.4 13.9 329 11.4
2004-04-14 06:30:03 51°15.426 2°53.954 332.5 13.9 329 11.4
2004-04-14 06:30:08 51°15.442 2°53.938 332.5 13.9 329 11.4
2004-04-14 06:30:13 51°15.458 2°53.923 332.4 13.8 329 11.5
2004-04-14 06:30:19 51°15.478 2°53.903 332.2 13.9 329 11.5
2004-04-14 06:30:24 51°15.495 2°53.888 332 13.8 329 11.6
2004-04-14 06:30:28 51°15.508 2°53.875 332 13.8 329 11.7
2004-04-14 06:30:33 51°15.524 2°53.859 332.1 13.8 329 11.7
2004-04-14 06:30:39 51°15.544 2°53.84 332.3 13.8 329 11.9
2004-04-14 06:30:43 51°15.557 2°53.828 332.4 13.9 329 11.9
2004-04-14 06:30:49 51°15.577 2°53.809 332.6 13.9 329 12
2004-04-14 06:30:53 51°15.59 2°53.796 332.8 13.8 329 12.2
2004-04-14 06:30:59 51°15.61 2°53.778 332.9 13.9 329 12.2
2004-04-14 06:31:03 51°15.623 2°53.765 332.9 13.8 329 12.3
2004-04-14 06:31:08 51°15.639 2°53.75 332.9 13.8 329 12.3
2004-04-14 06:31:13 51°15.656 2°53.734 332.6 13.8 329 12.3
2004-04-14 06:31:19 51°15.675 2°53.715 332.3 13.8 329 12.4
2004-04-14 06:31:23 51°15.688 2°53.702 332.2 13.9 329 12.6
2004-04-14 06:31:29 51°15.708 2°53.683 332.3 13.8 329 12.5
2004-04-14 06:31:33 51°15.721 2°53.671 332.4 13.8 329 12.7
2004-04-14 06:31:39 51°15.741 2°53.652 332.4 13.8 329 12.7
2004-04-14 06:31:44 51°15.757 2°53.636 332.5 13.8 329 12.7
2004-04-14 06:31:48 51°15.771 2°53.623 332.5 13.8 329 12.7
2004-04-14 06:31:53 51°15.787 2°53.607 332.3 13.8 328 12.9
2004-04-14 06:31:59 51°15.807 2°53.588 332.2 13.9 329 12.8
2004-04-14 06:32:04 51°15.823 2°53.572 332.2 13.9 329 12.9
2004-04-14 06:32:08 51°15.836 2°53.56 332.3 13.8 329 12.8
2004-04-14 06:32:13 51°15.852 2°53.544 332.5 13.8 329 13
2004-04-14 06:32:18 51°15.869 2°53.528 332.7 13.8 329 13
2004-04-14 06:32:24 51°15.889 2°53.509 332.4 13.9 329 13
2004-04-14 06:32:28 51°15.902 2°53.496 332.4 13.9 329 13
2004-04-14 06:32:33 51°15.918 2°53.48 332.1 13.9 329 13.2
2004-04-14 06:32:39 51°15.938 2°53.461 332.3 13.9 329 13.2
2004-04-14 06:32:43 51°15.952 2°53.449 332.5 13.9 330 13.2
2004-04-14 06:32:48 51°15.968 2°53.433 332.7 13.9 330 13.2
2004-04-14 06:32:53 51°15.985 2°53.418 332.7 13.9 330 13.2
2004-04-14 06:32:59 51°16.005 2°53.4 332.8 13.9 330 13.2
2004-04-14 06:33:04 51°16.022 2°53.386 333 13.9 332 13.3
2004-04-14 06:33:09 51°16.039 2°53.373 334.4 13.9 332 13.4
2004-04-14 06:33:13 51°16.053 2°53.362 336.2 13.8 335 13.4
2004-04-14 06:33:19 51°16.074 2°53.348 337.5 13.8 335 13.4
2004-04-14 06:33:23 51°16.088 2°53.338 338.5 13.8 337 13.5
2004-04-14 06:33:29 51°16.109 2°53.324 339.1 13.8 337 13.5
2004-04-14 06:33:33 51°16.123 2°53.314 339.6 13.8 337 13.5
2004-04-14 06:33:38 51°16.141 2°53.303 339.9 13.8 337 13.5
2004-04-14 06:33:43 51°16.159 2°53.291 340.1 13.7 337 13.6
2004-04-14 06:33:49 51°16.179 2°53.277 340.2 13.7 337 13.6
2004-04-14 06:33:53 51°16.193 2°53.267 339.9 13.6 337 13.7
2004-04-14 06:33:58 51°16.211 2°53.256 339.6 13.7 337 13.7
2004-04-14 06:34:03 51°16.228 2°53.244 339.5 13.7 336 13.7
2004-04-14 06:34:09 51°16.249 2°53.229 339.3 13.7 337 13.8
2004-04-14 06:34:13 51°16.263 2°53.22 339.6 13.7 337 13.8
2004-04-14 06:34:19 51°16.284 2°53.206 339.6 13.6 337 13.8
2004-04-14 06:34:24 51°16.302 2°53.194 339.6 13.6 337 13.8
2004-04-14 06:34:28 51°16.315 2°53.185 339.8 13.6 337 13.8
2004-04-14 06:34:33 51°16.333 2°53.173 339.9 13.6 337 13.8
2004-04-14 06:34:39 51°16.354 2°53.158 339.7 13.6 337 13.9
2004-04-14 06:34:43 51°16.368 2°53.149 339.6 13.7 336 13.9
2004-04-14 06:34:49 51°16.388 2°53.134 339.3 13.6 337 13.8
2004-04-14 06:34:53 51°16.402 2°53.125 339.5 13.6 337 13.8
2004-04-14 06:34:59 51°16.423 2°53.111 340 13.6 338 13.8
2004-04-14 06:35:04 51°16.44 2°53.1 340.2 13.7 337 13.8
2004-04-14 06:35:08 51°16.455 2°53.09 340.2 13.7 337 13.8
2004-04-14 06:35:13 51°16.472 2°53.078 340.1 13.7 337 13.8
2004-04-14 06:35:19 51°16.493 2°53.064 339.6 13.6 337 13.7
2004-04-14 06:35:24 51°16.51 2°53.052 339.3 13.6 336 13.7
2004-04-14 06:35:29 51°16.527 2°53.04 339 13.7 337 13.5
2004-04-14 06:35:33 51°16.541 2°53.03 339 13.6 336 13.5
2004-04-14 06:35:39 51°16.562 2°53.016 339.1 13.6 337 13.3
2004-04-14 06:35:43 51°16.576 2°53.006 339.3 13.7 337 13.3
2004-04-14 06:35:48 51°16.593 2°52.994 339.5 13.6 337 13.3
2004-04-14 06:35:53 51°16.611 2°52.982 339.6 13.6 337 13.1
2004-04-14 06:35:59 51°16.632 2°52.968 339.6 13.6 337 13.1
2004-04-14 06:36:04 51°16.649 2°52.956 339.5 13.6 336 12.9
2004-04-14 06:36:09 51°16.666 2°52.944 339.2 13.6 337 12.9
2004-04-14 06:36:13 51°16.68 2°52.935 339.2 13.6 337 12.8
2004-04-14 06:36:19 51°16.701 2°52.92 339.4 13.7 337 12.7
2004-04-14 06:36:23 51°16.715 2°52.911 339.6 13.6 336 12.6
2004-04-14 06:36:29 51°16.735 2°52.896 339.6 13.6 337 12.4
2004-04-14 06:36:33 51°16.749 2°52.887 339.5 13.6 337 12.1
2004-04-14 06:36:39 51°16.77 2°52.874 340 13.6 337 11.8
2004-04-14 06:36:44 51°16.788 2°52.863 341.1 13.6 339 11.5
2004-04-14 06:36:48 51°16.802 2°52.854 341.8 13.5 339 10.8
2004-04-14 06:36:53 51°16.819 2°52.844 342.4 13.5 340 10.8
2004-04-14 06:36:57 51°16.833 2°52.836 342.5 13.5 340 10.8
2004-04-14 06:37:04 51°16.858 2°52.821 342.7 13.5 340 10.9
2004-04-14 06:37:09 51°16.876 2°52.811 342.7 13.6 340 10.8
2004-04-14 06:37:13 51°16.89 2°52.803 342.7 13.6 340 10.7
2004-04-14 06:37:19 51°16.911 2°52.791 342.8 13.6 340 10.7
2004-04-14 06:37:23 51°16.926 2°52.784 344.6 13.6 343 10.8
2004-04-14 06:37:28 51°16.944 2°52.776 346.2 13.7 344 11.1
2004-04-14 06:37:33 51°16.962 2°52.769 347.6 13.7 345 11.1
2004-04-14 06:37:39 51°16.985 2°52.76 348.9 13.7 346 11.2
2004-04-14 06:37:43 51°17 2°52.754 349.8 13.8 347 11.2
2004-04-14 06:37:49 51°17.022 2°52.747 350.2 13.8 347 11.3
2004-04-14 06:37:53 51°17.037 2°52.741 350.5 13.8 347 11.6
2004-04-14 06:37:59 51°17.06 2°52.733 350.5 13.9 347 11.8
2004-04-14 06:38:03 51°17.075 2°52.727 350.4 13.9 347 11.8
2004-04-14 06:38:08 51°17.093 2°52.72 350.2 13.9 347 11.8
2004-04-14 06:38:13 51°17.112 2°52.713 349.9 13.9 346 11.7
2004-04-14 06:38:18 51°17.131 2°52.706 349.8 13.9 347 11.1
2004-04-14 06:38:23 51°17.15 2°52.7 349.9 13.9 347 11.1
2004-04-14 06:38:29 51°17.172 2°52.691 350.1 13.9 347 11.2
2004-04-14 06:38:33 51°17.187 2°52.686 350.5 13.9 347 11.1
2004-04-14 06:38:39 51°17.21 2°52.677 350.2 13.8 347 11.2
2004-04-14 06:38:43 51°17.225 2°52.673 350.8 13.9 350 11.1
2004-04-14 06:38:49 51°17.248 2°52.668 352.7 13.9 351 11.3
2004-04-14 06:38:53 51°17.263 2°52.665 354.5 14 352 11.3
2004-04-14 06:38:59 51°17.286 2°52.662 356.1 14 353 11.2
2004-04-14 06:39:04 51°17.306 2°52.659 357.5 14 355 11.4
2004-04-14 06:39:08 51°17.321 2°52.657 357.9 14 355 11.3
2004-04-14 06:39:13 51°17.34 2°52.654 358.6 14 356 11.6
2004-04-14 06:39:18 51°17.36 2°52.652 358.6 14 355 11.5
2004-04-14 06:39:24 51°17.383 2°52.648 358.6 14 355 11.6
2004-04-14 06:39:29 51°17.402 2°52.646 358.3 14 355 11.5
2004-04-14 06:39:33 51°17.418 2°52.644 358.4 14 355 11.5
2004-04-14 06:39:39 51°17.441 2°52.641 358.4 14.1 355 11.7
2004-04-14 06:39:43 51°17.457 2°52.638 358.5 14 354 11.7
2004-04-14 06:39:49 51°17.48 2°52.635 358.1 14 355 11.7
2004-04-14 06:39:53 51°17.495 2°52.632 358.1 14 355 11.8
2004-04-14 06:39:59 51°17.519 2°52.629 358.2 14.1 355 11.8
2004-04-14 06:40:03 51°17.534 2°52.627 358.5 14 355 11.5
2004-04-14 06:40:09 51°17.558 2°52.623 358.5 14 355 11.8
2004-04-14 06:40:13 51°17.573 2°52.621 358.3 14 355 12.4
2004-04-14 06:40:19 51°17.596 2°52.617 358 14 354 11.7
2004-04-14 06:40:23 51°17.612 2°52.615 358 14 355 11.8
2004-04-14 06:40:28 51°17.631 2°52.612 358.1 14 355 11.9
2004-04-14 06:40:33 51°17.65 2°52.609 358.3 14 355 11.6
2004-04-14 06:40:39 51°17.673 2°52.605 358.2 14 354 11.7
2004-04-14 06:40:43 51°17.689 2°52.603 357.9 14 354 11.6
2004-04-14 06:40:49 51°17.712 2°52.6 357.9 14 355 11.8
2004-04-14 06:40:53 51°17.728 2°52.597 358.1 14 355 11.8
2004-04-14 06:40:59 51°17.751 2°52.594 358.3 14 355 11.8
2004-04-14 06:41:03 51°17.767 2°52.591 358.4 14 355 11.7
2004-04-14 06:41:09 51°17.79 2°52.587 358.2 14 354 11.7
2004-04-14 06:41:13 51°17.805 2°52.585 357.6 14 354 11.7
2004-04-14 06:41:19 51°17.829 2°52.581 357.6 14 354 11.6
2004-04-14 06:41:23 51°17.844 2°52.579 357.8 14 355 11.7
2004-04-14 06:41:28 51°17.863 2°52.576 358.2 14 355 11.7
2004-04-14 06:41:33 51°17.883 2°52.573 358.3 14 354 12
2004-04-14 06:41:38 51°17.902 2°52.569 358 14 354 12
2004-04-14 06:41:44 51°17.925 2°52.565 357.7 14 354 12
2004-04-14 06:41:49 51°17.945 2°52.562 357.4 14 354 12.1
2004-04-14 06:41:53 51°17.96 2°52.559 357.4 14.1 354 12.1
2004-04-14 06:41:59 51°17.984 2°52.555 357.5 14.1 354 12.1
2004-04-14 06:42:04 51°18.003 2°52.552 357.6 14.1 354 12.1
2004-04-14 06:42:08 51°18.018 2°52.549 357.8 14 354 12.2
2004-04-14 06:42:13 51°18.038 2°52.546 357.8 14.1 354 12.2
2004-04-14 06:42:19 51°18.061 2°52.542 357.6 14.1 353 12.2
2004-04-14 06:42:24 51°18.081 2°52.538 357.5 14.1 354 12.3
2004-04-14 06:42:29 51°18.1 2°52.535 357.5 14.1 354 12.2
2004-04-14 06:42:33 51°18.116 2°52.532 357.6 14 354 12.3
2004-04-14 06:42:39 51°18.139 2°52.529 357.8 14.1 354 12.3
2004-04-14 06:42:43 51°18.154 2°52.526 357.9 14 354 12.3
2004-04-14 06:42:48 51°18.174 2°52.523 357.9 14 354 12.4
2004-04-14 06:42:53 51°18.193 2°52.519 357.8 14.1 354 12.4
2004-04-14 06:42:59 51°18.216 2°52.516 358 14.1 354 12.4
2004-04-14 06:43:03 51°18.232 2°52.514 358.9 14 355 12.4
2004-04-14 06:43:09 51°18.255 2°52.512 359.3 14.1 356 12.5
2004-04-14 06:43:13 51°18.271 2°52.51 359.9 14.1 357 12.6
2004-04-14 06:43:19 51°18.295 2°52.507   14.1 356 12.6
2004-04-14 06:43:23 51°18.31 2°52.505 0.1 14.1 356 12.6
2004-04-14 06:43:28 51°18.33 2°52.503 359.8 14.1 355 12.6
2004-04-14 06:43:33 51°18.349 2°52.5 359.7 14.1 356 12.6
2004-04-14 06:43:39 51°18.372 2°52.498 359.4 14.1 356 12.7
2004-04-14 06:43:43 51°18.388 2°52.496 359.4 14 356 12.7
2004-04-14 06:43:48 51°18.407 2°52.494 359.8 14 356 12.7
2004-04-14 06:43:53 51°18.426 2°52.491 359.9 14.1 356 12.8
2004-04-14 06:43:59 51°18.45 2°52.489   14.1 356 12.8
2004-04-14 06:44:03 51°18.466 2°52.487   14 356 12.9
2004-04-14 06:44:08 51°18.485 2°52.485 359.8 14 356 12.9
2004-04-14 06:44:13 51°18.504 2°52.482 359.8 14.1 356 13
2004-04-14 06:44:19 51°18.528 2°52.479 359.8 14.1 355 13
2004-04-14 06:44:23 51°18.543 2°52.478 359.7 14.1 356 13.1
2004-04-14 06:44:29 51°18.567 2°52.474 359.4 14.1 356 13.2
2004-04-14 06:44:33 51°18.582 2°52.473 359.2 14 356 13.2
2004-04-14 06:44:39 51°18.605 2°52.47 359.6 14 356 13.2
2004-04-14 06:44:43 51°18.621 2°52.468 359.7 14 356 13.2
2004-04-14 06:44:48 51°18.64 2°52.465 359.8 14 355 13.3
2004-04-14 06:44:53 51°18.66 2°52.463 359.7 14.1 355 13.3
2004-04-14 06:44:59 51°18.683 2°52.46 359.3 14 355 13.4
2004-04-14 06:45:03 51°18.698 2°52.458 359.2 14 356 13.4
2004-04-14 06:45:08 51°18.718 2°52.455 359.5 14 356 13.5
2004-04-14 06:45:13 51°18.737 2°52.453 359.8 14 356 13.6
2004-04-14 06:45:19 51°18.76 2°52.451 359.8 14 356 13.6
2004-04-14 06:45:23 51°18.776 2°52.449 359.8 14.1 356 13.7
2004-04-14 06:45:29 51°18.799 2°52.446 359.6 14.1 356 13.9
2004-04-14 06:45:33 51°18.815 2°52.444 359.4 14 356 13.9
2004-04-14 06:45:39 51°18.838 2°52.441 359.4 14 356 14
2004-04-14 06:45:43 51°18.854 2°52.439 359.5 14.1 356 14.1
2004-04-14 06:45:49 51°18.877 2°52.436 359.6 14.1 356 14.1
2004-04-14 06:45:53 51°18.892 2°52.434 359.6 14.1 356 14.2
2004-04-14 06:45:59 51°18.916 2°52.431 359.4 14.1 356 14.3
2004-04-14 06:46:03 51°18.931 2°52.429 359.2 14.1 355 14.4
2004-04-14 06:46:08 51°18.95 2°52.427 359.1 14.1 355 14.6
2004-04-14 06:46:13 51°18.969 2°52.425 359 14 355 14.6
2004-04-14 06:46:19 51°18.991 2°52.422 359 14 356 14.7
2004-04-14 06:46:23 51°19.006 2°52.421 359.1 14.1 356 14.9
2004-04-14 06:46:28 51°19.025 2°52.419 359.3 14.1 356 14.9
2004-04-14 06:46:33 51°19.046 2°52.416 359.5 14.1 356 15
2004-04-14 06:46:39 51°19.07 2°52.414 359.7 14.1 357 15.1
2004-04-14 06:46:43 51°19.086 2°52.413 0.7 14.1 358 15.2
2004-04-14 06:46:48 51°19.106 2°52.412 1.3 14.1 358 15.3
2004-04-14 06:46:53 51°19.126 2°52.412 2.7 14.2   15.4
2004-04-14 06:46:59 51°19.149 2°52.414 4.4 14.1 2 15.4
2004-04-14 06:47:03 51°19.165 2°52.415 5.7 14.2 3 15.6
2004-04-14 06:47:09 51°19.188 2°52.417 6.8 14.2 4 15.7
2004-04-14 06:47:13 51°19.204 2°52.419 7.7 14.1 4 15.7
2004-04-14 06:47:19 51°19.228 2°52.422 8 14.1 4 15.8
2004-04-14 06:47:23 51°19.244 2°52.424 8.4 14.2 4 15.8
2004-04-14 06:47:29 51°19.267 2°52.428 8.3 14.2 5 16
2004-04-14 06:47:33 51°19.283 2°52.43 8.4 14.2 5 16.1
2004-04-14 06:47:39 51°19.306 2°52.434 9.2 14.2 6 16.2
2004-04-14 06:47:44 51°19.326 2°52.438 10.1 14.2 7 16.3
2004-04-14 06:47:49 51°19.346 2°52.442 10.6 14.2 7 16.4
2004-04-14 06:47:53 51°19.361 2°52.445 11 14.3 8 16.4
2004-04-14 06:47:59 51°19.385 2°52.451 11.6 14.3 8 16.5
2004-04-14 06:48:04 51°19.404 2°52.457 12.3 14.3 10 16.5
2004-04-14 06:48:09 51°19.424 2°52.462 13.7 14.3 11 16.6
2004-04-14 06:48:13 51°19.439 2°52.467 14.4 14.3 11 16.6
2004-04-14 06:48:19 51°19.463 2°52.475 15.1 14.3 11 16.7
2004-04-14 06:48:23 51°19.478 2°52.48 15.3 14.3 12 16.8
2004-04-14 06:48:29 51°19.501 2°52.488 15.6 14.3 11 16.9
2004-04-14 06:48:33 51°19.517 2°52.493 15.5 14.3 12 16.7
2004-04-14 06:48:39 51°19.54 2°52.502 15.6 14.3 12 16.8
2004-04-14 06:48:43 51°19.555 2°52.509 17.4 14.4 15 16.9
2004-04-14 06:48:49 51°19.578 2°52.52 18.8 14.3 16 17
2004-04-14 06:48:53 51°19.593 2°52.528 20.8 14.3 18 17
2004-04-14 06:48:59 51°19.616 2°52.54 22 14.4 19 16.9
2004-04-14 06:49:04 51°19.635 2°52.551 23.1 14.4 19 17
2004-04-14 06:49:08 51°19.65 2°52.56 23.6 14.4 20 17.1
2004-04-14 06:49:13 51°19.668 2°52.571 24.4 14.4 20 17.2
2004-04-14 06:49:19 51°19.691 2°52.585 24.9 14.4 22 17.1
2004-04-14 06:49:23 51°19.706 2°52.594 25.4 14.4 20 17.2
2004-04-14 06:49:29 51°19.728 2°52.607 24.8 14.4 20 17.3
2004-04-14 06:49:33 51°19.743 2°52.616 24.6 14.4 20 17.4
2004-04-14 06:49:39 51°19.766 2°52.629 24.3 14.4 20 17.4
2004-04-14 06:49:43 51°19.781 2°52.638 24.3 14.5 20 17.4
2004-04-14 06:49:49 51°19.803 2°52.652 24.3 14.5 20 17.4
2004-04-14 06:49:53 51°19.818 2°52.661 24.8 14.5 21 17.4
2004-04-14 06:49:59 51°19.841 2°52.674 24.9 14.4 20 17.4
2004-04-14 06:50:04 51°19.86 2°52.685 24.7 14.4 20 17.4
2004-04-14 06:50:09 51°19.878 2°52.696 24.3 14.5 20 17.6
2004-04-14 06:50:13 51°19.893 2°52.705 24.1 14.5 20 17.4
2004-04-14 06:50:19 51°19.916 2°52.718 24.4 14.4 20 17.5
2004-04-14 06:50:24 51°19.935 2°52.729 24.3 14.5 20 17.6
2004-04-14 06:50:29 51°19.953 2°52.74 24.3 14.5 20 17.6
2004-04-14 06:50:33 51°19.969 2°52.749 24.5 14.5 20 17.6
2004-04-14 06:50:39 51°19.991 2°52.762 24.4 14.4 20 17.7
2004-04-14 06:50:43 51°20.006 2°52.771 24.5 14.4 20 17.7
2004-04-14 06:50:49 51°20.029 2°52.784 24.2 14.4 20 17.6
2004-04-14 06:50:53 51°20.044 2°52.793 24.2 14.5 20 17.7
2004-04-14 06:50:59 51°20.067 2°52.806 24.2 14.4 20 17.7
2004-04-14 06:51:04 51°20.085 2°52.816 23.8 14.5 19 17.7
2004-04-14 06:51:09 51°20.104 2°52.827 24 14.5 21 17.7
2004-04-14 06:51:13 51°20.119 2°52.836 24.3 14.5 19 17.7
2004-04-14 06:51:19 51°20.142 2°52.849 23.9 14.4 19 17.7
2004-04-14 06:51:24 51°20.161 2°52.86 23.7 14.5 20 17.8
2004-04-14 06:51:28 51°20.176 2°52.868 24 14.5 20 17.7
2004-04-14 06:51:33 51°20.195 2°52.879 23.9 14.5 19 17.7
2004-04-14 06:51:39 51°20.218 2°52.892 23.9 14.5 19 17.7
2004-04-14 06:51:44 51°20.237 2°52.902 23.7 14.5 20 17.8
2004-04-14 06:51:49 51°20.256 2°52.913 23.5 14.5 20 17.8
2004-04-14 06:51:53 51°20.271 2°52.923 24.2 14.5 21 17.8
2004-04-14 06:51:59 51°20.293 2°52.937 25.4 14.5 22 17.8
2004-04-14 06:52:04 51°20.312 2°52.949 26.2 14.5 22 17.8
2004-04-14 06:52:08 51°20.326 2°52.959 26.7 14.5 22 17.8
2004-04-14 06:52:13 51°20.345 2°52.971 26.9 14.5 23 17.8
2004-04-14 06:52:19 51°20.367 2°52.986 27.2 14.5 23 17.9
2004-04-14 06:52:24 51°20.386 2°52.999 27.3 14.5 23 18
2004-04-14 06:52:28 51°20.4 2°53.009 27.4 14.5 23 17.9
2004-04-14 06:52:33 51°20.419 2°53.021 27.2 14.4 22 17.9
2004-04-14 06:52:39 51°20.441 2°53.036 27 14.5 23 17.9
2004-04-14 06:52:43 51°20.456 2°53.046 27.2 14.5 23 17.9
2004-04-14 06:52:48 51°20.474 2°53.059 27.4 14.5 24 17.9
2004-04-14 06:52:53 51°20.493 2°53.073 28.3 14.5 24 17.9
2004-04-14 06:52:59 51°20.514 2°53.089 28.9 14.5 25 18
2004-04-14 06:53:03 51°20.529 2°53.1 29 14.5 25 18
2004-04-14 06:53:09 51°20.551 2°53.116 29 14.5 25 17.9
2004-04-14 06:53:13 51°20.565 2°53.126 28.6 14.4 24 18.1
2004-04-14 06:53:19 51°20.587 2°53.142 28.7 14.4 25 17.9
2004-04-14 06:53:23 51°20.602 2°53.153 29 14.4 25 18.1
2004-04-14 06:53:28 51°20.62 2°53.167 29.1 14.5 25 18
2004-04-14 06:53:33 51°20.638 2°53.18 29.7 14.4 25 18
2004-04-14 06:53:39 51°20.66 2°53.197 29.6 14.4 25 18.1
2004-04-14 06:53:43 51°20.674 2°53.207 29.7 14.4 25 18
2004-04-14 06:53:48 51°20.692 2°53.221 29.4 14.4 25 18
2004-04-14 06:53:53 51°20.711 2°53.234 29 14.4 25 17.9
2004-04-14 06:53:59 51°20.733 2°53.25 28.7 14.4 24 18.1
2004-04-14 06:54:04 51°20.751 2°53.263 28.8 14.5 24 18.1
2004-04-14 06:54:08 51°20.765 2°53.274 28.8 14.5 25 18.1
2004-04-14 06:54:13 51°20.784 2°53.287 28.9 14.5 25 18
2004-04-14 06:54:19 51°20.805 2°53.303 28.9 14.5 25 18
2004-04-14 06:54:23 51°20.82 2°53.314 28.5 14.4 24 18.1
2004-04-14 06:54:28 51°20.838 2°53.327 28.4 14.4 24 18.1
2004-04-14 06:54:33 51°20.856 2°53.34 28.3 14.4 24 18.1
2004-04-14 06:54:39 51°20.878 2°53.356 28.3 14.4 24 18.1
2004-04-14 06:54:44 51°20.897 2°53.369 28.3 14.4 24 18.2
2004-04-14 06:54:49 51°20.915 2°53.382 28.3 14.5 25 18.2
2004-04-14 06:54:53 51°20.929 2°53.392 28.6 14.4 24 18.1
2004-04-14 06:54:59 51°20.951 2°53.408 28.4 14.4 24 18.1
2004-04-14 06:55:04 51°20.969 2°53.421 28.3 14.4 24 18.1
2004-04-14 06:55:08 51°20.984 2°53.432 28.2 14.4 24 18.1
2004-04-14 06:55:13 51°21.002 2°53.445 28.4 14.4 24 18.2
2004-04-14 06:55:19 51°21.024 2°53.461 28.6 14.3 25 18.1
2004-04-14 06:55:24 51°21.042 2°53.474 28.6 14.4 25 18.2
2004-04-14 06:55:29 51°21.06 2°53.487 28.6 14.4 24 18.1
2004-04-14 06:55:33 51°21.075 2°53.498 28.3 14.4 25 18.1
2004-04-14 06:55:39 51°21.096 2°53.514 28.5 14.4 24 18.1
2004-04-14 06:55:43 51°21.111 2°53.525 28.2 14.4 24 18.1
2004-04-14 06:55:49 51°21.133 2°53.541 28.3 14.5 25 18
2004-04-14 06:55:53 51°21.148 2°53.551 28.4 14.5 24 18.1
2004-04-14 06:55:59 51°21.17 2°53.566 28.3 14.5 24 18.2
2004-04-14 06:56:03 51°21.184 2°53.578 28 14.4 24 18.2
2004-04-14 06:56:09 51°21.206 2°53.593 28.4 14.5 24 18.2
2004-04-14 06:56:13 51°21.221 2°53.604 28.2 14.5 25 18.2
2004-04-14 06:56:19 51°21.243 2°53.62 28.3 14.5 24 18.1
2004-04-14 06:56:24 51°21.261 2°53.633 28.2 14.5 25 18
2004-04-14 06:56:29 51°21.279 2°53.647 28.1 14.5 24 18.1
2004-04-14 06:56:33 51°21.294 2°53.657 28.1 14.5 25 18.2
2004-04-14 06:56:39 51°21.315 2°53.674 28.3 14.5 25 18.1
2004-04-14 06:56:44 51°21.334 2°53.687 28.7 14.5 25 18.2
2004-04-14 06:56:49 51°21.352 2°53.7 28.7 14.5 25 18.2
2004-04-14 06:56:53 51°21.367 2°53.711 28.3 14.5 25 18.2
2004-04-14 06:56:58 51°21.385 2°53.725 28.3 14.4 25 18.2
2004-04-14 06:57:04 51°21.407 2°53.742 28.4 14.4 26 18.2
2004-04-14 06:57:09 51°21.425 2°53.755 28.7 14.5 26 18.1
2004-04-14 06:57:13 51°21.439 2°53.766 29 14.5 25 18.2
2004-04-14 06:57:19 51°21.461 2°53.783 28.8 14.5 25 18.2
2004-04-14 06:57:23 51°21.476 2°53.793 28.5 14.4 25 18.2
2004-04-14 06:57:28 51°21.494 2°53.807 28.3 14.4 25 18
2004-04-14 06:57:33 51°21.512 2°53.82 28 14.4 24 18.2
2004-04-14 06:57:39 51°21.534 2°53.836 27.9 14.4 25 18.3
2004-04-14 06:57:43 51°21.548 2°53.847 28.3 14.4 25 18.3
2004-04-14 06:57:48 51°21.566 2°53.86 28.5 14.4 24 18.3
2004-04-14 06:57:53 51°21.585 2°53.874 28 14.5 25 18.3
2004-04-14 06:57:59 51°21.607 2°53.89 28.1 14.5 25 18.3
2004-04-14 06:58:03 51°21.621 2°53.901 28.1 14.5 25 18.3
2004-04-14 06:58:09 51°21.643 2°53.917 28.5 14.5 26 18.3
2004-04-14 06:58:14 51°21.661 2°53.931 28.7 14.5 24 18.3
2004-04-14 06:58:19 51°21.68 2°53.944 28.9 14.5 25 18.5
2004-04-14 06:58:23 51°21.694 2°53.955 28.6 14.4 26 18.4
2004-04-14 06:58:28 51°21.712 2°53.969 28.4 14.4 25 18.3
2004-04-14 06:58:33 51°21.73 2°53.982 28.5 14.5 25 18.4
2004-04-14 06:58:39 51°21.752 2°53.999 28.3 14.5 25 18.2
2004-04-14 06:58:44 51°21.77 2°54.012 28.4 14.4 24 18.2
2004-04-14 06:58:49 51°21.789 2°54.026 28.1 14.4 25 18.4
2004-04-14 06:58:53 51°21.803 2°54.036 28.1 14.4 25 18.6
2004-04-14 06:58:58 51°21.821 2°54.05 28.2 14.5 25 19
2004-04-14 06:59:04 51°21.843 2°54.066 28.3 14.4 25 19
2004-04-14 06:59:09 51°21.861 2°54.08 28.7 14.4 25 19
2004-04-14 06:59:13 51°21.876 2°54.091 28.4 14.4 25 19.2
2004-04-14 06:59:18 51°21.894 2°54.104 28.2 14.4 25 19.1
2004-04-14 06:59:23 51°21.912 2°54.117 28.1 14.4 25 19.3
2004-04-14 06:59:28 51°21.93 2°54.131 27.9 14.5 24 19.5
2004-04-14 06:59:33 51°21.949 2°54.144 27.9 14.5 25 19.9
2004-04-14 06:59:38 51°21.967 2°54.158 28.4 14.5 26 20.2
2004-04-14 06:59:44 51°21.989 2°54.174 28.7 14.4 24 20.4
2004-04-14 06:59:49 51°22.006 2°54.188 27.9 14.4 25 20.4
2004-04-14 06:59:53 51°22.021 2°54.198 28.1 14.4 25 20.3
2004-04-14 06:59:59 51°22.043 2°54.215 28.2 14.5 25 20.3
2004-04-14 07:00:03 51°22.058 2°54.226 28.5 14.5 25 20.2
2004-04-14 07:00:09 51°22.079 2°54.242 28.3 14.5 25 20.4
2004-04-14 07:00:13 51°22.094 2°54.253 28.3 14.5 25 20.4
2004-04-14 07:00:18 51°22.112 2°54.267 28.3 14.5 25 20.2
2004-04-14 07:00:23 51°22.131 2°54.28 28.3 14.6 25 20
2004-04-14 07:00:29 51°22.153 2°54.296 28.2 14.6 25 19.8
2004-04-14 07:00:33 51°22.167 2°54.307 27.9 14.5 24 20
2004-04-14 07:00:38 51°22.186 2°54.32 27.7 14.5 25 20
2004-04-14 07:00:43 51°22.204 2°54.333 27.5 14.4 24 19.9
2004-04-14 07:00:48 51°22.222 2°54.346 27.4 14.4 25 20
2004-04-14 07:00:53 51°22.24 2°54.36 27.6 14.5 24 20.1
2004-04-14 07:00:59 51°22.262 2°54.375 28 14.4 25 19.9
2004-04-14 07:01:03 51°22.277 2°54.386 28.1 14.5 25 19.9
2004-04-14 07:01:08 51°22.295 2°54.4 28.3 14.5 25 20
2004-04-14 07:01:13 51°22.313 2°54.413 28.3 14.5 25 20.1
2004-04-14 07:01:19 51°22.335 2°54.429 28.3 14.5 25 20.3
2004-04-14 07:01:23 51°22.349 2°54.44 28.5 14.5 25 20.3
2004-04-14 07:01:29 51°22.371 2°54.456 28.2 14.5 25 20.4
2004-04-14 07:01:33 51°22.386 2°54.467 28.2 14.5 25 20.5
2004-04-14 07:01:39 51°22.408 2°54.483 28.3 14.5 25 20.7
2004-04-14 07:01:43 51°22.422 2°54.494 28.3 14.4 25 20.8
2004-04-14 07:01:48 51°22.44 2°54.507 28.3 14.4 25 21
2004-04-14 07:01:53 51°22.458 2°54.521 28.2 14.4 25 21
2004-04-14 07:01:59 51°22.48 2°54.537 28.3 14.4 26 21.1
2004-04-14 07:02:03 51°22.494 2°54.548 28.7 14.4 25 21.1
2004-04-14 07:02:09 51°22.516 2°54.564 28.9 14.4 25 21.1
2004-04-14 07:02:13 51°22.53 2°54.576 28.7 14.4 25 21.3
2004-04-14 07:02:19 51°22.552 2°54.591 28.3 14.4 24 21.4
2004-04-14 07:02:23 51°22.567 2°54.603 28.2 14.5 25 21.5
2004-04-14 07:02:28 51°22.585 2°54.616 28.6 14.5 25 21.8
2004-04-14 07:02:33 51°22.603 2°54.63 28.8 14.5 25 21.8
2004-04-14 07:02:39 51°22.625 2°54.646 28.7 14.5 25 21.9
2004-04-14 07:02:43 51°22.639 2°54.657 28.5 14.4 25 21.9
2004-04-14 07:02:49 51°22.661 2°54.673 28.3 14.4 24 21.9
2004-04-14 07:02:53 51°22.676 2°54.683 28.1 14.4 24 22.1
2004-04-14 07:02:59 51°22.698 2°54.7 27.9 14.4 25 22.1
2004-04-14 07:03:03 51°22.712 2°54.711 28 14.5 25 22.2
2004-04-14 07:03:09 51°22.734 2°54.727 28.6 14.5 25 22.3
2004-04-14 07:03:13 51°22.749 2°54.738 28.9 14.5 25 22.3
2004-04-14 07:03:19 51°22.771 2°54.754 28.6 14.5 25 22.2
2004-04-14 07:03:24 51°22.789 2°54.768 28.1 14.5 24 22.2
2004-04-14 07:03:29 51°22.807 2°54.781 28.1 14.5 25 22
2004-04-14 07:03:33 51°22.822 2°54.791 28.4 14.5 25 21.7
2004-04-14 07:03:38 51°22.84 2°54.805 28.6 14.4 25 21.6
2004-04-14 07:03:43 51°22.859 2°54.819 28.7 14.5 24 21.4
2004-04-14 07:03:49 51°22.88 2°54.834 28.4 14.4 24 21.4
2004-04-14 07:03:53 51°22.895 2°54.845 28.2 14.4 24 21.3
2004-04-14 07:03:59 51°22.917 2°54.86 28.1 14.4 25 21.2
2004-04-14 07:04:03 51°22.931 2°54.871 28.1 14.4 24 21.1
2004-04-14 07:04:09 51°22.953 2°54.887 28.4 14.4 25 21.1
2004-04-14 07:04:13 51°22.967 2°54.898 28.6 14.4 25 21.1
2004-04-14 07:04:19 51°22.989 2°54.914 28.9 14.4 25 21.2
2004-04-14 07:04:24 51°23.007 2°54.928 29 14.5 25 21.1
2004-04-14 07:04:29 51°23.025 2°54.941 28.8 14.5 25 21
2004-04-14 07:04:33 51°23.04 2°54.951 28.4 14.4 24 20.9
2004-04-14 07:04:38 51°23.058 2°54.964 28.2 14.5 24 20.9
2004-04-14 07:04:43 51°23.077 2°54.978 27.7 14.5 24 21
2004-04-14 07:04:49 51°23.099 2°54.993 27.9 14.5 24 20.9
2004-04-14 07:04:53 51°23.113 2°55.004 28.3 14.5 25 21.1
2004-04-14 07:04:59 51°23.136 2°55.02 28.3 14.5 24 21.1
2004-04-14 07:05:03 51°23.15 2°55.03 28.2 14.5 24 20.9
2004-04-14 07:05:08 51°23.169 2°55.044 28.4 14.5 24 21
2004-04-14 07:05:13 51°23.187 2°55.057 28.8 14.5 25 20.8
2004-04-14 07:05:18 51°23.205 2°55.07 28.5 14.5 24 20.6
2004-04-14 07:05:23 51°23.224 2°55.083 27.9 14.4 23 20.7
2004-04-14 07:05:28 51°23.242 2°55.096 28.1 14.5 24 20.8
2004-04-14 07:05:33 51°23.26 2°55.109 28 14.5 24 19.7
2004-04-14 07:05:39 51°23.283 2°55.125 28.3 14.5 24 20.1
2004-04-14 07:05:43 51°23.297 2°55.135 28.2 14.5 24 21
2004-04-14 07:05:48 51°23.316 2°55.149 28.4 14.5 25 20
2004-04-14 07:05:53 51°23.334 2°55.162 28.5 14.5 24 18
2004-04-14 07:05:59 51°23.356 2°55.178 28.5 14.5 24 21.1
2004-04-14 07:06:03 51°23.371 2°55.188 28.6 14.5 24 20.5
2004-04-14 07:06:09 51°23.393 2°55.205 28.5 14.6 24 19.7
2004-04-14 07:06:13 51°23.408 2°55.215 28.7 14.6 24 17.3
2004-04-14 07:06:18 51°23.426 2°55.228 28.4 14.5 25 20.2
2004-04-14 07:06:23 51°23.444 2°55.241 28.3 14.5 24 20.6
2004-04-14 07:06:29 51°23.466 2°55.257 28.3 14.5 25 20
2004-04-14 07:06:33 51°23.481 2°55.268 28.3 14.5 24 17.7
2004-04-14 07:06:39 51°23.503 2°55.283 28.2 14.5 24 19.8
2004-04-14 07:06:43 51°23.518 2°55.294 27.9 14.5 24 20
2004-04-14 07:06:49 51°23.54 2°55.31 28.2 14.5 25 19.2
2004-04-14 07:06:53 51°23.555 2°55.321 28.5 14.5 25 19.3
2004-04-14 07:06:59 51°23.576 2°55.337 28.4 14.5 25 18.6
2004-04-14 07:07:03 51°23.591 2°55.347 28.3 14.5 24 19.2
2004-04-14 07:07:09 51°23.613 2°55.364 28.2 14.5 25 20.2
2004-04-14 07:07:13 51°23.628 2°55.374 28.5 14.6 24 18.4
2004-04-14 07:07:19 51°23.65 2°55.39 28.3 14.6 24 19.6
2004-04-14 07:07:23 51°23.665 2°55.4 28 14.5 24 20.6
2004-04-14 07:07:29 51°23.687 2°55.416 27.8 14.6 24 19.2
2004-04-14 07:07:33 51°23.701 2°55.427 27.8 14.6 24 20.7
2004-04-14 07:07:38 51°23.72 2°55.44 28 14.5 24 20.5
2004-04-14 07:07:43 51°23.738 2°55.453 28.3 14.6 24 18.8
2004-04-14 07:07:49 51°23.76 2°55.469 27.9 14.6 24 20
2004-04-14 07:07:53 51°23.775 2°55.48 28.2 14.6 25 20.4
2004-04-14 07:07:59 51°23.797 2°55.496 28.3 14.5 24 21.2
2004-04-14 07:08:03 51°23.812 2°55.506 28.3 14.6 25 20.8
2004-04-14 07:08:09 51°23.834 2°55.522 28.3 14.6 24 20.9
2004-04-14 07:08:13 51°23.849 2°55.534 28.3 14.5 26 20.8
2004-04-14 07:08:19 51°23.87 2°55.551 29.2 14.6 26 19.3
2004-04-14 07:08:23 51°23.885 2°55.562 29.7 14.6 26 20.5
2004-04-14 07:08:29 51°23.907 2°55.579 29.6 14.6 25 20.9
2004-04-14 07:08:33 51°23.922 2°55.59 29.2 14.6 26 20.9
2004-04-14 07:08:39 51°23.944 2°55.607 29.4 14.7 26 21.8
2004-04-14 07:08:43 51°23.958 2°55.618 29.5 14.7 25 21.6
2004-04-14 07:08:48 51°23.977 2°55.632 29.1 14.7 25 21.3
2004-04-14 07:08:53 51°23.995 2°55.646 29.5 14.7 25 21.9
2004-04-14 07:08:58 51°24.014 2°55.659 29.5 14.7 25 22.3
2004-04-14 07:09:03 51°24.032 2°55.673 28.9 14.7 25 22.4
2004-04-14 07:09:09 51°24.054 2°55.69 29 14.7 25 22.7
2004-04-14 07:09:13 51°24.069 2°55.701 29 14.7 25 22.8
2004-04-14 07:09:17 51°24.084 2°55.712 29.6 14.7 26 22.7
2004-04-14 07:09:23 51°24.106 2°55.729 29.4 14.7 26 23
2004-04-14 07:09:28 51°24.125 2°55.743 29.3 14.7 24 23.1
2004-04-14 07:09:33 51°24.143 2°55.757 29 14.8 26 23.3
2004-04-14 07:09:37 51°24.158 2°55.768 29 14.7 24 23.8
2004-04-14 07:09:43 51°24.18 2°55.785 29 14.7 26 24
2004-04-14 07:09:48 51°24.199 2°55.798 29.2 14.8 25 24
2004-04-14 07:09:53 51°24.217 2°55.813 29.3 14.8 25 24.1
2004-04-14 07:09:59 51°24.239 2°55.83 29.6 14.7 25 24.3
2004-04-14 07:10:03 51°24.254 2°55.841 29.7 14.7 25 24.4
2004-04-14 07:10:09 51°24.277 2°55.858 29.3 14.8 25 24.5
2004-04-14 07:10:13 51°24.292 2°55.869 29.3 14.8 25 24.7
2004-04-14 07:10:19 51°24.314 2°55.886 28.8 14.8 25 24.9
2004-04-14 07:10:23 51°24.329 2°55.897 29 14.8 25 25.1
2004-04-14 07:10:28 51°24.347 2°55.911 29 14.8 26 25.2
2004-04-14 07:10:33 51°24.365 2°55.926 30.2 14.8 27 25.3
2004-04-14 07:10:39 51°24.387 2°55.945 31.4 14.8 28 25.3
2004-04-14 07:10:43 51°24.401 2°55.958 32.6 14.8 29 25.4
2004-04-14 07:10:49 51°24.422 2°55.978 33.4 14.8 30 25.4
2004-04-14 07:10:53 51°24.437 2°55.991 34.3 14.8 30 25.3
2004-04-14 07:10:59 51°24.458 2°56.011 34.1 14.8 31 24.9
2004-04-14 07:11:03 51°24.472 2°56.024 34.8 14.9 30 24.4
2004-04-14 07:11:08 51°24.49 2°56.041 34.4 14.8 30 24.2
2004-04-14 07:11:13 51°24.507 2°56.058 34.7 14.7 31 24.1
2004-04-14 07:11:19 51°24.528 2°56.078 35.3 14.8 30 24
2004-04-14 07:11:23 51°24.542 2°56.091 34.5 14.8 30 23.9
2004-04-14 07:11:29 51°24.564 2°56.112 35.1 14.8 32 24
2004-04-14 07:11:33 51°24.578 2°56.125 35.1 14.8 31 24.2
2004-04-14 07:11:37 51°24.592 2°56.138 34.6 14.8 31 24.4
2004-04-14 07:11:43 51°24.613 2°56.158 34.8 14.8 30 24.5
2004-04-14 07:11:48 51°24.63 2°56.175 34.5 14.8 31 24.5
2004-04-14 07:11:53 51°24.648 2°56.192 34.8 14.8 31 24.5
2004-04-14 07:11:59 51°24.669 2°56.212 34.8 14.8 31 24.6
2004-04-14 07:12:04 51°24.686 2°56.229 34.9 14.8 31 24.7
2004-04-14 07:12:08 51°24.7 2°56.243 35.1 14.8 31 24.7
2004-04-14 07:12:13 51°24.718 2°56.26 35 14.8 31 25.1
2004-04-14 07:12:19 51°24.739 2°56.28 35 14.8 31 25.1
2004-04-14 07:12:23 51°24.753 2°56.293 34.4 14.8 31 25.3
2004-04-14 07:12:28 51°24.771 2°56.31 34.6 14.9 31 25.4
2004-04-14 07:12:33 51°24.789 2°56.327 34.8 14.9 31 25.4
2004-04-14 07:12:39 51°24.81 2°56.348 35 14.9 31 25.6
2004-04-14 07:12:43 51°24.824 2°56.361 34.8 14.8 31 25.9
2004-04-14 07:12:48 51°24.842 2°56.378 34.4 14.8 30 26
2004-04-14 07:12:53 51°24.859 2°56.395 34.1 14.9 31 26.2
2004-04-14 07:12:59 51°24.881 2°56.415 34.6 14.9 31 26.3
2004-04-14 07:13:03 51°24.895 2°56.428 34.1 14.8 31 26.4
2004-04-14 07:13:08 51°24.913 2°56.445 34.7 14.9 31 26.4
2004-04-14 07:13:13 51°24.93 2°56.462 34.4 14.9 30 26.4
2004-04-14 07:13:19 51°24.952 2°56.482 34.1 14.8 31 26.4
2004-04-14 07:13:24 51°24.969 2°56.499 34.1 14.8 31 26.4
2004-04-14 07:13:28 51°24.984 2°56.512 34.4 14.9 31 26.1
2004-04-14 07:13:33 51°25.001 2°56.529 34.5 14.9 30 25.7
2004-04-14 07:13:38 51°25.019 2°56.545 34.5 14.8 31 25.6
2004-04-14 07:13:43 51°25.037 2°56.562 34.1 14.8 30 25.7
2004-04-14 07:13:48 51°25.055 2°56.579 33.9 14.8 30 26
2004-04-14 07:13:53 51°25.072 2°56.595 33.9 14.8 30 26
2004-04-14 07:13:59 51°25.094 2°56.615 34.1 14.8 30 26.2
2004-04-14 07:14:03 51°25.108 2°56.628 34.1 14.8 30 26.1
2004-04-14 07:14:09 51°25.129 2°56.649 33.9 14.8 31 26.2
2004-04-14 07:14:13 51°25.143 2°56.662 34.1 14.9 30 26.3
2004-04-14 07:14:19 51°25.164 2°56.682 34.3 14.9 31 26.3
2004-04-14 07:14:24 51°25.182 2°56.699 34.6 14.8 30 26.3
2004-04-14 07:14:29 51°25.2 2°56.716 34.4 14.8 31 26.3
2004-04-14 07:14:33 51°25.214 2°56.729 34.1 14.8 30 26.4
2004-04-14 07:14:39 51°25.235 2°56.749 33.5 14.8 31 26.3
2004-04-14 07:14:43 51°25.249 2°56.762 33.8 14.7 31 26.3
2004-04-14 07:14:49 51°25.27 2°56.783 34.5 14.7 31 26.2
2004-04-14 07:14:53 51°25.284 2°56.796 34.6 14.7 31 26.2
2004-04-14 07:14:59 51°25.306 2°56.816 33.7 14.8 30 26.2
2004-04-14 07:15:03 51°25.32 2°56.829 33.7 14.8 31 26.1
2004-04-14 07:15:07 51°25.334 2°56.842 34.3 14.8 31 26.2
2004-04-14 07:15:13 51°25.355 2°56.862 34.1 14.8 31 25.9
2004-04-14 07:15:17 51°25.369 2°56.875 33.8 14.7 30 25.8
2004-04-14 07:15:23 51°25.39 2°56.895 33.6 14.8 30 25.7
2004-04-14 07:15:29 51°25.411 2°56.915 33.6 14.7 31 25.8
2004-04-14 07:15:33 51°25.425 2°56.929 34.3 14.7 31 25.6
2004-04-14 07:15:39 51°25.446 2°56.949 34.6 14.7 31 25.4
2004-04-14 07:15:44 51°25.464 2°56.966 34.6 14.7 31 25.4
2004-04-14 07:15:48 51°25.478 2°56.979 34.2 14.7 31 25.3
2004-04-14 07:15:53 51°25.495 2°56.996 34.5 14.7 31 25.2
2004-04-14 07:15:59 51°25.516 2°57.017 34.7 14.8 31 25.1
2004-04-14 07:16:03 51°25.53 2°57.03 34.7 14.7 31 25
2004-04-14 07:16:08 51°25.548 2°57.047 34.5 14.7 31 25
2004-04-14 07:16:13 51°25.565 2°57.064 34.5 14.7 31 24.8
2004-04-14 07:16:19 51°25.586 2°57.084 34.5 14.8 31 24.5
2004-04-14 07:16:24 51°25.604 2°57.101 34.4 14.8 30 24.4
2004-04-14 07:16:29 51°25.622 2°57.117 33.9 14.8 30 24.1
2004-04-14 07:16:33 51°25.636 2°57.131 33.9 14.8 31 23.9
2004-04-14 07:16:39 51°25.657 2°57.151 34.6 14.8 31 23.8
2004-04-14 07:16:44 51°25.675 2°57.168 34.3 14.8 31 23.6
2004-04-14 07:16:48 51°25.689 2°57.181 34.2 14.8 31 23.4
2004-04-14 07:16:53 51°25.707 2°57.198 34.2 14.8 30 23.1
2004-04-14 07:16:59 51°25.728 2°57.218 34.1 14.8 31 23
2004-04-14 07:17:04 51°25.746 2°57.234 33.9 14.8 30 22.7
2004-04-14 07:17:09 51°25.763 2°57.251 33.5 14.7 30 22.5
2004-04-14 07:17:13 51°25.777 2°57.264 33.8 14.7 31 22.4
2004-04-14 07:17:19 51°25.798 2°57.284 34.1 14.7 31 22.1
2004-04-14 07:17:23 51°25.812 2°57.298 34.5 14.7 31 21.9
2004-04-14 07:17:28 51°25.83 2°57.314 34.6 14.7 31 21.6
2004-04-14 07:17:33 51°25.847 2°57.331 34.8 14.7 31 21.5
2004-04-14 07:17:39 51°25.868 2°57.351 34.9 14.7 31 21.5
2004-04-14 07:17:43 51°25.882 2°57.365 35 14.8 31 21.4
2004-04-14 07:17:49 51°25.903 2°57.385 34.8 14.8 31 21.1
2004-04-14 07:17:53 51°25.918 2°57.398 34.4 14.7 30 20.8
2004-04-14 07:17:59 51°25.939 2°57.418 34.1 14.8 30 20.7
2004-04-14 07:18:03 51°25.953 2°57.431 34.2 14.8 31 20.7
2004-04-14 07:18:09 51°25.974 2°57.452 34.3 14.8 31 20.3
2004-04-14 07:18:13 51°25.988 2°57.465 34.4 14.8 30 20.2
2004-04-14 07:18:19 51°26.01 2°57.484 34.2 14.8 30 20.1
2004-04-14 07:18:23 51°26.024 2°57.497 34 14.7 30 19.2
2004-04-14 07:18:29 51°26.045 2°57.517 33.5 14.7 30 18.3
2004-04-14 07:18:33 51°26.059 2°57.53 33.4 14.7 31 20
2004-04-14 07:18:38 51°26.076 2°57.547 34 14.6 31 19.8
2004-04-14 07:18:44 51°26.097 2°57.567 34.6 14.7 31 19.8
2004-04-14 07:18:49 51°26.115 2°57.584 34.8 14.7 31 19.5
2004-04-14 07:18:53 51°26.129 2°57.597 34.7 14.7 31 19.5
2004-04-14 07:18:59 51°26.15 2°57.617 34.7 14.7 31 19
2004-04-14 07:19:04 51°26.167 2°57.634 34.3 14.6 31 18.2
2004-04-14 07:19:09 51°26.185 2°57.651 34.1 14.6 31 19.5
2004-04-14 07:19:13 51°26.199 2°57.664 34.1 14.6 31 19.5
2004-04-14 07:19:19 51°26.22 2°57.684 34 14.6 31 19.2
2004-04-14 07:19:24 51°26.237 2°57.701 34.1 14.6 31 18.8
2004-04-14 07:19:29 51°26.254 2°57.718 34.4 14.5 32 16.7
2004-04-14 07:19:33 51°26.268 2°57.731 34.8 14.5 32 17.5
2004-04-14 07:19:39 51°26.288 2°57.752 34.7 14.5 32 18.6
2004-04-14 07:19:43 51°26.302 2°57.765 34.5 14.5 31 18.6
2004-04-14 07:19:49 51°26.323 2°57.785 34.1 14.5 31 18.6
2004-04-14 07:19:53 51°26.336 2°57.798 33.8 14.5 31 17.6
2004-04-14 07:19:59 51°26.357 2°57.818 33.8 14.5 31 17.8
2004-04-14 07:20:03 51°26.37 2°57.832 34.1 14.4 32 17.6
2004-04-14 07:20:09 51°26.391 2°57.852 34.4 14.4 31 16
2004-04-14 07:20:13 51°26.404 2°57.865 34.1 14.4 32 17.9
2004-04-14 07:20:17 51°26.418 2°57.879 34.2 14.4 31 17.3
2004-04-14 07:20:24 51°26.441 2°57.903 34.1 14.5 33 17.1
2004-04-14 07:20:29 51°26.459 2°57.919 34.5 14.4 31 18.3
2004-04-14 07:20:33 51°26.472 2°57.933 34.3 14.4 32 18.1
2004-04-14 07:20:39 51°26.493 2°57.953 34.4 14.4 32 16.6
2004-04-14 07:20:43 51°26.506 2°57.967 34.3 14.4 32 18.4
2004-04-14 07:20:49 51°26.527 2°57.986 34.5 14.4 31 16.3
2004-04-14 07:20:53 51°26.54 2°58 34.2 14.4 32 18
2004-04-14 07:20:59 51°26.561 2°58.02 34.3 14.3 31 18.3
2004-04-14 07:21:03 51°26.574 2°58.033 34.4 14.3 33 18.2
2004-04-14 07:21:09 51°26.594 2°58.053 34.9 14.4 32 19
2004-04-14 07:21:13 51°26.608 2°58.067 34.9 14.4 32 19
2004-04-14 07:21:19 51°26.628 2°58.087 34.6 14.3 31 19.1
2004-04-14 07:21:24 51°26.645 2°58.103 34.3 14.4 31 18.8
2004-04-14 07:21:28 51°26.659 2°58.117 34.1 14.4 31 16.6
2004-04-14 07:21:33 51°26.676 2°58.133 34 14.4 32 18.2
2004-04-14 07:21:39 51°26.696 2°58.153 34.3 14.3 31 17.3
2004-04-14 07:21:44 51°26.713 2°58.17 34.6 14.3 32 18
2004-04-14 07:21:48 51°26.727 2°58.183 34.6 14.3 32 17.5
2004-04-14 07:21:53 51°26.744 2°58.2 34.5 14.3 31 17.7
2004-04-14 07:21:59 51°26.764 2°58.219 33.8 14.3 31 17.7
2004-04-14 07:22:04 51°26.781 2°58.236 33.6 14.3 31 15.2
2004-04-14 07:22:09 51°26.798 2°58.253 33.7 14.3 31 16.6
2004-04-14 07:22:13 51°26.811 2°58.267 34.7 14.3 33 17.5
2004-04-14 07:22:18 51°26.828 2°58.284 34.9 14.3 32 16.7
2004-04-14 07:22:23 51°26.844 2°58.302 35.7 14.4 35 17.8
2004-04-14 07:22:29 51°26.864 2°58.324 37.3 14.4 34 16.9
2004-04-14 07:22:33 51°26.876 2°58.339 38.3 14.5 37 17
2004-04-14 07:22:39 51°26.896 2°58.362 39.5 14.4 37 17.4
2004-04-14 07:22:43 51°26.908 2°58.379 40.4 14.5 39 17.8
2004-04-14 07:22:48 51°26.924 2°58.398 41.2 14.5 38 18.3
2004-04-14 07:22:53 51°26.94 2°58.418 41.2 14.5 38 18.5
2004-04-14 07:22:59 51°26.959 2°58.441 41 14.4 37 19
2004-04-14 07:23:04 51°26.975 2°58.461 40.7 14.5 37 19.3
2004-04-14 07:23:09 51°26.991 2°58.48 40.6 14.5 37 15.8
2004-04-14 07:23:13 51°27.003 2°58.496 40.6 14.4 38 16.9
2004-04-14 07:23:19 51°27.022 2°58.52 41 14.4 38 17.5
2004-04-14 07:23:23 51°27.035 2°58.535 41.2 14.5 37 18.5
2004-04-14 07:23:29 51°27.054 2°58.559 40.7 14.5 37 17.3
2004-04-14 07:23:33 51°27.067 2°58.575 40.8 14.5 38 17.8
2004-04-14 07:23:39 51°27.086 2°58.598 41.1 14.4 38 18.3
2004-04-14 07:23:43 51°27.099 2°58.614 41.2 14.4 37 18.9
2004-04-14 07:23:49 51°27.118 2°58.637 40.7 14.5 38 19.3
2004-04-14 07:23:53 51°27.131 2°58.653 40.8 14.5 37 19.5
2004-04-14 07:23:59 51°27.15 2°58.676 40.8 14.4 38 19.8
2004-04-14 07:24:04 51°27.165 2°58.696 40.8 14.3 38 19.9
2004-04-14 07:24:09 51°27.181 2°58.716 41.2 14.4 38 19.9
2004-04-14 07:24:13 51°27.194 2°58.731 41.1 14.4 38 20
2004-04-14 07:24:18 51°27.21 2°58.751 41 14.4 38 19.9
2004-04-14 07:24:23 51°27.225 2°58.771 41.2 14.3 40 19.1
2004-04-14 07:24:28 51°27.24 2°58.792 42.8 14.3 40 17.6
2004-04-14 07:24:33 51°27.255 2°58.813 43.9 14.3 41 16.3
2004-04-14 07:24:39 51°27.273 2°58.839 45 14.4 43 17.1
2004-04-14 07:24:43 51°27.285 2°58.856 45.5 14.4 42 18
2004-04-14 07:24:48 51°27.299 2°58.878 45.7 14.4 43 17.4
2004-04-14 07:24:53 51°27.314 2°58.9 46.4 14.4 43 18.6
2004-04-14 07:24:58 51°27.329 2°58.922 46.1 14.5 43 18.3
2004-04-14 07:25:04 51°27.347 2°58.948 46 14.5 42 17.6
2004-04-14 07:25:09 51°27.361 2°58.97 45.6 14.5 43 17.9
2004-04-14 07:25:13 51°27.373 2°58.987 45.7 14.4 42 18.6
2004-04-14 07:25:19 51°27.39 2°59.014 46.1 14.5 44 19.3
2004-04-14 07:25:24 51°27.406 2°59.035 46.6 14.6 42 20.3
2004-04-14 07:25:29 51°27.42 2°59.057 46 14.6 42 21
2004-04-14 07:25:33 51°27.432 2°59.074 46.1 14.5 43 21
2004-04-14 07:25:38 51°27.447 2°59.096 45.9 14.5 42 21.3
2004-04-14 07:25:43 51°27.462 2°59.118 45.7 14.5 43 21.3
2004-04-14 07:25:49 51°27.48 2°59.144 46.3 14.5 42 21.3
2004-04-14 07:25:53 51°27.492 2°59.161 45.8 14.5 42 21.5
2004-04-14 07:25:59 51°27.51 2°59.187 45.7 14.5 42 21.6
2004-04-14 07:26:04 51°27.525 2°59.209 45.8 14.5 42 21.4
2004-04-14 07:26:09 51°27.539 2°59.23 45.7 14.6 43 21.2
2004-04-14 07:26:13 51°27.551 2°59.248 45.7 14.5 43 20.1
2004-04-14 07:26:19 51°27.569 2°59.274 46 14.4 43 21
2004-04-14 07:26:23 51°27.581 2°59.292 46.3 14.6 43 21.6
2004-04-14 07:26:29 51°27.599 2°59.318 46.4 14.6 43 21.9
2004-04-14 07:26:33 51°27.611 2°59.335 45.7 14.4 42 21.9
2004-04-14 07:26:39 51°27.628 2°59.361 45.5 14.4 42 22.1
2004-04-14 07:26:43 51°27.64 2°59.378 45.7 14.5 42 21.6
2004-04-14 07:26:48 51°27.655 2°59.399 45.7 14.5 42 20.4
2004-04-14 07:26:53 51°27.67 2°59.421 45.4 14.5 41 20.1
2004-04-14 07:26:57 51°27.682 2°59.438 45.3 14.6 42 20.6
2004-04-14 07:27:03 51°27.7 2°59.464 45.2 14.5 41 21.1
2004-04-14 07:27:08 51°27.715 2°59.486 45.6 14.5 43 18.7
2004-04-14 07:27:13 51°27.73 2°59.507 46.4 14.5 42 19.5
2004-04-14 07:27:17 51°27.741 2°59.525 46.3 14.5 43 20
2004-04-14 07:27:23 51°27.759 2°59.551 46 14.5 42 20.8
2004-04-14 07:27:28 51°27.774 2°59.572 45.4 14.6 42 19.7
2004-04-14 07:27:33 51°27.79 2°59.594 45.1 14.6 41 20.3
2004-04-14 07:27:39 51°27.808 2°59.62 45.6 14.6 43 20.6
2004-04-14 07:27:43 51°27.819 2°59.637 45.9 14.5 43 19.5
2004-04-14 07:27:49 51°27.836 2°59.665 46.9 14.5 45 20.5
2004-04-14 07:27:53 51°27.848 2°59.684 48.2 14.6 46 20.8
2004-04-14 07:27:57 51°27.858 2°59.703 50 14.6 47 19.8
2004-04-14 07:28:04 51°27.878 2°59.736 50.6 14.7 47 20.6
2004-04-14 07:28:09 51°27.891 2°59.76 51 14.6 48 19.9
2004-04-14 07:28:13 51°27.902 2°59.779 51.7 14.6 48 19.8
2004-04-14 07:28:19 51°27.918 2°59.809 51.8 14.5 48 20
2004-04-14 07:28:23 51°27.929 2°59.828 52.3 14.6 48 20.4
2004-04-14 07:28:28 51°27.943 2°59.852 52.2 14.7 48 20.7
2004-04-14 07:28:33 51°27.956 2°59.877 52 14.6 48 19.1
2004-04-14 07:28:37 51°27.967 2°59.896 51.8 14.7 48 20.3
2004-04-14 07:28:44 51°27.986 2°59.93 51.8 14.6 49 20.7
2004-04-14 07:28:49 51°27.998 2°59.956 53.3 14.6 51 20.7
2004-04-14 07:28:53 51°28.008 2°59.977 55.3 14.7 53 20.8
2004-04-14 07:28:59 51°28.023 3°0.009 56.6 14.8 54 21.2
2004-04-14 07:29:03 51°28.032 3°0.03 58 14.7 55 21.6
2004-04-14 07:29:08 51°28.043 3°0.057 59.4 14.7 56 20.8
2004-04-14 07:29:13 51°28.055 3°0.084 60 14.7 56 20.9
2004-04-14 07:29:19 51°28.068 3°0.117 60 14.7 56 21.2
2004-04-14 07:29:24 51°28.079 3°0.144 60.2 14.6 57 21.2
2004-04-14 07:29:29 51°28.091 3°0.171 60.9 14.7 57 21.6
2004-04-14 07:29:33 51°28.1 3°0.193 61.2 14.7 57 21.9
2004-04-14 07:29:39 51°28.113 3°0.225 60.7 14.7 56 22.3
2004-04-14 07:29:43 51°28.122 3°0.247 60.5 14.7 56 20.7
2004-04-14 07:29:49 51°28.136 3°0.279 60 14.7 55 21.3
2004-04-14 07:29:53 51°28.146 3°0.301 60 14.7 56 21.6
2004-04-14 07:29:59 51°28.159 3°0.333 60.2 14.7 56 22
2004-04-14 07:30:04 51°28.17 3°0.36 60.5 14.7 56 21.6
2004-04-14 07:30:09 51°28.182 3°0.387 60.5 14.7 56 21.7
2004-04-14 07:30:13 51°28.191 3°0.409 60.7 14.7 56 21.8
2004-04-14 07:30:19 51°28.205 3°0.441 60.4 14.7 56 21.9
2004-04-14 07:30:23 51°28.215 3°0.462 59.6 14.7 55 22.2
2004-04-14 07:30:29 51°28.23 3°0.493 58.9 14.8 53 22.3
2004-04-14 07:30:33 51°28.239 3°0.515 57.4 14.7 53 22.2
2004-04-14 07:30:39 51°28.255 3°0.545 56.8 14.7 53 21.9
2004-04-14 07:30:43 51°28.264 3°0.565 56.3 14.7 52 22.2
2004-04-14 07:30:49 51°28.28 3°0.596 55.9 14.8 51 22.5
2004-04-14 07:30:53 51°28.29 3°0.617 55.5 14.7 51 22.5
2004-04-14 07:30:57 51°28.301 3°0.637 55.1 14.7 51 22.7
2004-04-14 07:31:04 51°28.319 3°0.672 55.1 14.7 51 22.7
2004-04-14 07:31:09 51°28.331 3°0.698 55.3 14.7 51 22.4
2004-04-14 07:31:13 51°28.341 3°0.718 55.5 14.7 51 22.4
2004-04-14 07:31:19 51°28.357 3°0.749 55.3 14.7 51 22.2
2004-04-14 07:31:23 51°28.367 3°0.769 55.3 14.6 51 22.3
2004-04-14 07:31:28 51°28.38 3°0.795 55.8 14.7 51 22.3
2004-04-14 07:31:33 51°28.393 3°0.82 55.5 14.8 51 22.5
2004-04-14 07:31:39 51°28.408 3°0.85 55.3 14.7 51 22.7
2004-04-14 07:31:44 51°28.421 3°0.876 55.4 14.7 51 23
2004-04-14 07:31:49 51°28.434 3°0.901 55.7 14.7 51 23.2
2004-04-14 07:31:53 51°28.444 3°0.922 55.8 14.7 51 23
2004-04-14 07:31:59 51°28.46 3°0.952 55.4 14.8 50 22.9
2004-04-14 07:32:03 51°28.47 3°0.972 54.9 14.8 50 23
2004-04-14 07:32:08 51°28.483 3°0.997 54.9 14.8 51 22.8
2004-04-14 07:32:13 51°28.496 3°1.023 55.3 14.8 51 22.9
2004-04-14 07:32:19 51°28.512 3°1.054 55.3 14.7 51 22.8
2004-04-14 07:32:24 51°28.525 3°1.079 56 14.7 51 22.9
2004-04-14 07:32:29 51°28.537 3°1.105 56 14.8 51 22.9
2004-04-14 07:32:33 51°28.548 3°1.125 55.4 14.7 50 22.8
2004-04-14 07:32:39 51°28.563 3°1.155 55.4 14.7 51 22.7
2004-04-14 07:32:43 51°28.574 3°1.176 55.5 14.7 51 22.6
2004-04-14 07:32:48 51°28.586 3°1.201 55.5 14.7 51 22.8
2004-04-14 07:32:53 51°28.6 3°1.226 55.4 14.9 50 23
2004-04-14 07:32:59 51°28.615 3°1.257 55.6 14.8 51 23.1
2004-04-14 07:33:04 51°28.628 3°1.282 55.8 14.7 51 23.2
2004-04-14 07:33:09 51°28.641 3°1.308 55.6 14.7 51 23.3
2004-04-14 07:33:13 51°28.651 3°1.328 55.5 14.7 50 23.4
2004-04-14 07:33:19 51°28.667 3°1.358 54.7 14.8 50 23.6
2004-04-14 07:33:23 51°28.677 3°1.378 54.5 14.7 51 23.6
2004-04-14 07:33:29 51°28.693 3°1.409 55 14.8 51 23.7
2004-04-14 07:33:33 51°28.704 3°1.429 55.2 14.7 51 23.8
2004-04-14 07:33:37 51°28.714 3°1.449 55.3 14.7 51 23.7
2004-04-14 07:33:43 51°28.729 3°1.48 55.3 14.7 51 23.6
2004-04-14 07:33:49 51°28.745 3°1.51 55.7 14.7 51 23.7
2004-04-14 07:33:53 51°28.755 3°1.53 55.6 14.7 50 23.7
2004-04-14 07:33:59 51°28.771 3°1.56 55.2 14.7 50 23.7
2004-04-14 07:34:03 51°28.781 3°1.581 55.1 14.8 50 23.7
2004-04-14 07:34:08 51°28.794 3°1.606 54.9 14.8 50 23.7
2004-04-14 07:34:13 51°28.808 3°1.631 55.1 14.8 50 23.7
2004-04-14 07:34:19 51°28.824 3°1.662 55.1 14.9 51 23.7
2004-04-14 07:34:23 51°28.834 3°1.682 55.4 14.8 50 23.7
2004-04-14 07:34:29 51°28.85 3°1.713 55.6 14.9 51 23.7
2004-04-14 07:34:33 51°28.86 3°1.733 55.7 14.8 50 23.7
2004-04-14 07:34:39 51°28.875 3°1.764 55.5 14.8 51 23.7
2004-04-14 07:34:43 51°28.886 3°1.784 55.7 14.8 50 23.7
2004-04-14 07:34:49 51°28.902 3°1.815 55.2 14.8 50 23.7
2004-04-14 07:34:53 51°28.912 3°1.835 55.1 14.8 50 23.7
2004-04-14 07:34:59 51°28.928 3°1.866 54.8 14.8 51 23.6
2004-04-14 07:35:04 51°28.941 3°1.891 55.2 14.8 51 23.6
2004-04-14 07:35:09 51°28.953 3°1.917 55.8 14.9 51 23.6
2004-04-14 07:35:13 51°28.964 3°1.937 55.8 14.8 51 23.6
2004-04-14 07:35:19 51°28.979 3°1.968 55.8 14.8 51 23.5
2004-04-14 07:35:23 51°28.99 3°1.989 56 14.9 51 23.6
2004-04-14 07:35:29 51°29.005 3°2.02 56.1 14.9 51 23.5
2004-04-14 07:35:33 51°29.016 3°2.04 56.1 14.9 51 23.6
2004-04-14 07:35:39 51°29.031 3°2.071 56.1 14.9 51 23.6
2004-04-14 07:35:44 51°29.045 3°2.096 55.8 14.8 51 23.6
2004-04-14 07:35:49 51°29.058 3°2.121 55.3 14.8 50 23.6
2004-04-14 07:35:53 51°29.069 3°2.141 55.1 14.8 50 23.6
2004-04-14 07:35:59 51°29.085 3°2.172 54.8 14.9 50 23.7
2004-04-14 07:36:03 51°29.095 3°2.192 54.6 14.8 50 23.9
2004-04-14 07:36:09 51°29.111 3°2.223 55.1 14.8 51 23.8
2004-04-14 07:36:12 51°29.119 3°2.238 55.3 14.9 51 23.9
2004-04-14 07:36:19 51°29.137 3°2.273 55.3 14.9 51 24
2004-04-14 07:36:24 51°29.15 3°2.299 55.2 15 51 24
2004-04-14 07:36:29 51°29.164 3°2.325 55.1 15 50 24.1
2004-04-14 07:36:33 51°29.174 3°2.345 55.3 14.9 51 24.2
2004-04-14 07:36:39 51°29.19 3°2.376 55.6 14.9 51 24.2
2004-04-14 07:36:44 51°29.203 3°2.401 55.7 14.9 50 24.3
2004-04-14 07:36:49 51°29.216 3°2.426 55.1 14.9 50 24.3
2004-04-14 07:36:53 51°29.227 3°2.447 54.7 14.9 50 24.4
2004-04-14 07:36:59 51°29.243 3°2.477 54.7 14.9 50 24.3
2004-04-14 07:37:04 51°29.256 3°2.503 54.9 14.9 51 24.2
2004-04-14 07:37:08 51°29.266 3°2.523 55.3 14.9 51 24.2
2004-04-14 07:37:14 51°29.282 3°2.554 55.4 14.9 51 24.2
2004-04-14 07:37:18 51°29.292 3°2.575 55.3 14.9 51 24.1
2004-04-14 07:37:23 51°29.305 3°2.6 55.4 14.8 51 24.1
2004-04-14 07:37:29 51°29.32 3°2.631 55.9 14.9 52 24.2
2004-04-14 07:37:33 51°29.33 3°2.652 56 14.8 51 24
2004-04-14 07:37:39 51°29.346 3°2.683 56.1 14.9 52 24.2
2004-04-14 07:37:43 51°29.356 3°2.704 55.8 14.9 51 24.1
2004-04-14 07:37:49 51°29.372 3°2.734 55.4 14.8 51 24.2
2004-04-14 07:37:54 51°29.385 3°2.76 55.4 14.8 51 24.4
2004-04-14 07:37:59 51°29.398 3°2.785 55.3 14.9 50 24.5